Latest Weather Observations for Camden

IDN60801

Issued at 5:32 pm EDT Saturday 25 February 2017 (issued every 30 minutes, with the page automatically refreshed every 10 minutes)

About weather observations | Map of weather stations | Latest weather observations for NSW | Other Formats
Station Details ID: 068192 Name: CAMDEN AIRPORT AWS Lat: -34.04 Lon: 150.69 Height: 73.9 m
Data from the previous 72 hours. | See also: Recent months at Camden
Date/Time
EDT
Temp
°C
App
Temp
°C
Dew
Point
°C
Rel
Hum
%
Delta-T
°C
Wind Press
QNH
hPa
Press
MSL
hPa
Rain since
9am
mm
Dir  Spd
km/h
Gust
km/h
Spd
kts
Gust
kts
25/05:30pm 20.7 19.6 14.4 67 3.7 S 13 20 7 11 1020.1 1019.8 0.0
25/05:00pm 21.0 20.3 14.4 66 3.9 SSW 11 17 6 9 1020.2 1019.9 0.0
25/04:30pm 21.0 20.8 14.6 67 3.8 S 9 13 5 7 1020.3 1020.0 0.0
25/04:00pm 20.9 19.1 14.5 67 3.7 SSE 17 22 9 12 1020.4 1020.1 0.0
25/03:30pm 21.4 21.4 14.1 63 4.3 S 7 13 4 7 1020.5 1020.2 0.0
25/03:00pm 21.1 20.3 14.0 64 4.1 SSW 11 17 6 9 1020.6 1020.3 0.0
25/02:30pm 21.2 20.4 13.9 63 4.2 S 11 20 6 11 1020.9 1020.6 0.0
25/02:00pm 21.0 19.9 14.2 65 4.0 S 13 20 7 11 1021.2 1020.9 0.0
25/01:30pm 20.9 19.7 14.1 65 4.0 S 13 20 7 11 1021.2 1020.9 0.0
25/01:00pm 20.6 18.5 13.6 64 4.0 S 17 24 9 13 1021.4 1021.1 0.0
25/12:30pm 20.7 18.6 13.6 64 4.1 S 17 24 9 13 1021.5 1021.2 0.0
25/12:00pm 20.7 19.1 13.9 65 3.9 S 15 22 8 12 1021.7 1021.4 0.0
25/11:30am 20.6 18.6 14.0 66 3.8 S 17 24 9 13 1021.9 1021.6 0.0
25/11:00am 20.3 18.4 14.2 68 3.5 S 17 28 9 15 1021.9 1021.6 0.0
25/10:30am 20.3 18.9 14.4 69 3.4 S 15 24 8 13 1021.7 1021.4 0.0
25/10:00am 20.2 19.2 14.6 70 3.3 S 13 20 7 11 1021.7 1021.4 0.0
25/09:30am 19.9 17.7 14.3 70 3.3 S 19 26 10 14 1021.5 1021.2 0.0
25/09:00am 19.8 18.4 14.4 71 3.1 S 15 22 8 12 1021.4 1021.1 3.0
25/08:30am 19.5 18.0 14.3 72 3.0 S 15 20 8 11 1021.3 1021.0 3.0
25/08:00am 19.5 18.5 14.7 74 2.8 S 13 19 7 10 1021.1 1020.8 3.0
25/07:30am 19.2 17.8 14.5 74 2.7 S 15 24 8 13 1021.0 1020.7 3.0
25/07:00am 19.2 17.5 14.7 75 2.6 S 17 24 9 13 1020.6 1020.3 3.0
25/06:30am 19.3 17.7 15.0 76 2.5 S 17 30 9 16 1020.2 1019.9 3.0
25/06:00am 19.4 18.3 15.3 77 2.4 S 15 20 8 11 1020.0 1019.7 3.0
25/05:30am 19.7 18.2 15.4 76 2.5 S 17 28 9 15 1019.8 1019.5 3.0
25/05:00am 19.8 18.0 15.4 76 2.6 S 19 28 10 15 1019.7 1019.4 3.0
25/04:30am 19.9 18.1 15.5 76 2.6 S 19 35 10 19 1019.7 1019.4 3.0
25/04:00am 20.0 19.1 15.8 77 2.5 S 15 26 8 14 1019.6 1019.3 3.0
25/03:30am 20.2 19.7 16.0 77 2.5 S 13 20 7 11 1019.6 1019.3 3.0
25/03:00am 20.4 19.2 16.2 77 2.5 S 17 26 9 14 1019.7 1019.4 3.0
25/02:30am 20.6 19.9 16.4 77 2.5 S 15 24 8 13 1019.6 1019.3 3.0
25/02:00am 20.7 19.7 16.7 78 2.4 SSE 17 26 9 14 1019.8 1019.5 3.0
25/01:30am 20.4 21.2 17.2 82 2.0 SSW 9 17 5 9 1020.1 1019.8 3.0
25/01:00am 20.4 20.4 17.2 82 2.0 SSW 13 17 7 9 1020.5 1020.2 3.0
25/12:30am 21.8 21.9 17.4 76 2.7 S 13 20 7 11 1020.3 1020.0 2.4
25/12:00am 21.4 22.9 18.0 81 2.1 SW 7 13 4 7 1020.3 1020.0 2.4
 
Date/Time
EDT
Temp
°C
App
Temp
°C
Dew
Point
°C
Rel
Hum
%
Delta-T
°C
Wind Press
QNH
hPa
Press
MSL
hPa
Rain since
9am
mm
Dir  Spd
km/h
Gust
km/h
Spd
kts
Gust
kts
24/11:30pm 21.2 23.0 18.8 86 1.5 WSW 7 11 4 6 1020.1 1019.8 2.4
24/11:00pm 21.6 24.7 18.6 83 1.9 CALM 0 6 0 3 1020.3 1020.0 2.2
24/10:55pm 21.7 24.1 18.7 83 1.9 SSE 4 13 2 7 1020.4 1020.1 2.2
24/10:37pm 21.9 23.5 18.3 80 2.3 SSE 7 13 4 7 1020.4 1020.1 1.6
24/10:30pm 22.7 24.5 18.3 76 2.8 SE 6 11 3 6 1020.3 1020.0 0.0
24/10:00pm 23.2 24.3 17.9 72 3.3 SSW 9 13 5 7 1020.8 1020.5 0.0
24/09:30pm 23.0 24.4 17.9 73 3.2 SSW 7 11 4 6 1020.3 1020.0 0.0
24/09:00pm 23.0 24.1 17.9 73 3.2 S 9 17 5 9 1020.0 1019.7 0.0
24/08:30pm 22.9 23.5 17.8 73 3.2 S 11 15 6 8 1019.6 1019.3 0.0
24/08:00pm 22.6 22.8 17.7 74 3.0 SSE 13 20 7 11 1019.3 1019.0 0.0
24/07:30pm 22.6 22.7 17.5 73 3.2 SSE 13 20 7 11 1019.0 1018.7 0.0
24/07:00pm 23.3 22.4 17.7 71 3.5 SSE 19 26 10 14 1018.7 1018.4 0.0
24/06:30pm 24.4 24.7 17.9 67 4.1 ESE 13 20 7 11 1018.1 1017.8 0.0
24/06:00pm 25.1 24.5 17.6 63 4.7 E 17 28 9 15 1017.7 1017.4 0.0
24/05:30pm 27.0 26.6 17.2 55 6.1 ENE 15 20 8 11 1017.4 1017.1 0.0
24/05:00pm 27.4 26.7 17.3 54 6.3 ENE 17 24 9 13 1017.3 1017.0 0.0
24/04:30pm 28.1 27.0 17.3 52 6.8 ENE 19 28 10 15 1017.3 1017.0 0.0
24/04:00pm 28.0 27.1 16.9 51 6.9 NE 17 26 9 14 1017.4 1017.1 0.0
24/03:30pm 28.7 27.3 17.9 52 6.9 NE 22 30 12 16 1017.9 1017.6 0.0
24/03:00pm 28.0 27.6 17.2 52 6.8 ENE 15 28 8 15 1018.2 1017.9 0.0
24/02:30pm 28.4 27.9 17.9 53 6.7 ENE 17 26 9 14 1018.2 1017.9 0.0
24/02:00pm 27.9 28.0 17.4 52 6.6 E 13 24 7 13 1018.6 1018.3 0.0
24/01:30pm 28.1 28.7 17.6 53 6.7 E 11 20 6 11 1019.2 1018.9 0.0
24/01:00pm 27.1 27.3 17.6 56 6.0 ENE 13 20 7 11 1019.5 1019.2 0.0
24/12:30pm 27.9 28.9 17.7 53 6.5 ESE 9 17 5 9 1019.9 1019.6 0.0
24/12:00pm 26.0 27.6 17.9 61 5.1 NE 6 13 3 7 1020.5 1020.2 0.0
24/11:30am 25.7 27.2 18.1 63 4.8 ENE 7 13 4 7 1020.8 1020.5 0.0
24/11:00am 24.8 26.3 18.0 66 4.3 NNE 7 13 4 7 1021.0 1020.7 0.0
24/10:30am 24.5 26.7 18.4 69 3.9 NNW 4 7 2 4 1021.4 1021.1 0.0
24/10:00am 23.7 26.2 18.1 71 3.5 SW 2 9 1 5 1021.4 1021.1 0.0
24/09:30am 23.2 26.2 18.5 75 3.0 CALM 0 0 0 0 1021.3 1021.0 0.0
24/09:00am 21.7 24.8 18.7 83 1.9 CALM 0 0 0 0 1021.2 1020.9 0.0
24/08:30am 20.1 22.9 17.9 87 1.4 CALM 0 0 0 0 1021.1 1020.8 0.0
24/08:00am 19.0 21.4 18.0 94 0.6 W 2 7 1 4 1020.9 1020.6 0.0
24/07:30am 17.1 19.3 16.5 96 0.4 CALM 0 0 0 0 1020.5 1020.2 0.0
24/07:00am 16.5 18.3 15.4 93 0.6 CALM 0 0 0 0 1020.0 1019.7 0.0
24/06:30am 16.6 18.5 15.8 95 0.5 CALM 0 0 0 0 1019.6 1019.3 0.0
24/06:00am 16.9 18.8 15.8 93 0.6 CALM 0 0 0 0 1019.2 1018.9 0.0
24/05:30am 17.1 18.9 15.4 90 1.0 CALM 0 0 0 0 1018.8 1018.5 0.0
24/05:00am 17.1 18.8 15.3 89 1.0 CALM 0 0 0 0 1018.4 1018.1 0.0
24/04:30am 16.9 18.5 14.9 88 1.2 CALM 0 0 0 0 1018.0 1017.7 0.0
24/04:00am 17.4 19.1 15.2 87 1.3 CALM 0 0 0 0 1018.0 1017.7 0.0
24/03:30am 17.8 19.6 15.6 87 1.3 CALM 0 0 0 0 1018.0 1017.7 0.0
24/03:00am 17.7 18.0 15.1 85 1.5 SSE 7 11 4 6 1018.0 1017.7 0.0
24/02:30am 18.0 19.7 15.1 83 1.7 CALM 0 0 0 0 1017.8 1017.5 0.0
24/02:00am 18.4 20.2 15.5 83 1.7 CALM 0 0 0 0 1017.7 1017.4 0.0
24/01:30am 18.9 20.7 15.4 80 2.1 CALM 0 0 0 0 1017.9 1017.6 0.0
24/01:00am 19.4 21.2 15.5 78 2.3 CALM 0 0 0 0 1018.1 1017.8 0.0
24/12:30am 20.1 21.8 15.3 74 2.8 CALM 0 2 0 1 1018.2 1017.9 0.0
24/12:00am 20.4 21.4 15.4 73 3.0 S 4 7 2 4 1018.3 1018.0 0.0
 
Date/Time
EDT
Temp
°C
App
Temp
°C
Dew
Point
°C
Rel
Hum
%
Delta-T
°C
Wind Press
QNH
hPa
Press
MSL
hPa
Rain since
9am
mm
Dir  Spd
km/h
Gust
km/h
Spd
kts
Gust
kts
23/11:30pm 20.8 22.5 15.1 70 3.4 CALM 0 9 0 5 1018.4 1018.1 0.0
23/11:00pm 21.3 22.9 14.9 67 3.8 CALM 0 0 0 0 1018.6 1018.3 0.0
23/10:30pm 22.5 24.1 14.9 62 4.5 CALM 0 0 0 0 1018.7 1018.4 0.0
23/10:00pm 23.1 23.9 14.7 59 5.0 E 4 9 2 5 1018.7 1018.4 0.0
23/09:30pm 23.6 25.3 15.1 59 5.1 CALM 0 0 0 0 1018.6 1018.3 0.0
23/09:00pm 23.9 24.5 15.4 59 5.1 ESE 6 9 3 5 1018.1 1017.8 0.0
23/08:30pm 24.6 25.1 15.5 57 5.5 ESE 7 11 4 6 1017.8 1017.5 0.0
23/08:00pm 25.5 26.1 15.8 55 5.9 ENE 7 13 4 7 1017.3 1017.0 0.0
23/07:30pm 26.5 26.7 15.8 51 6.6 E 9 17 5 9 1016.8 1016.4 0.0
23/07:00pm 28.0 26.8 16.0 48 7.4 E 17 26 9 14 1016.2 1015.8 0.0
23/06:30pm 29.2 27.7 15.3 42 8.5 ENE 17 26 9 14 1016.0 1015.6 0.0
23/06:00pm 30.9 29.0 15.7 39 9.4 ENE 20 30 11 16 1015.5 1015.1 0.0
23/05:30pm 31.9 30.0 15.8 38 10.1 E 20 28 11 15 1015.3 1015.0 0.0
23/05:00pm 32.8 31.1 15.8 36 10.6 ENE 19 26 10 14 1015.1 1014.8 0.0
23/04:30pm 33.4 31.1 15.8 34 11.1 ENE 22 30 12 16 1015.2 1014.9 0.0
23/04:00pm 34.6 33.3 16.9 35 11.3 ENE 19 26 10 14 1015.3 1015.0 0.0
23/03:30pm 35.2 34.6 14.5 29 12.8 NNE 11 20 6 11 1015.5 1015.1 0.0
23/03:00pm 34.3 32.5 13.2 28 12.8 NNE 15 24 8 13 1015.8 1015.4 0.0
23/02:30pm 34.0 33.2 15.0 32 11.8 NE 13 22 7 12 1016.3 1015.9 0.0
23/02:00pm 32.3 31.5 14.0 33 11.1 N 11 17 6 9 1016.8 1016.4 0.0
23/01:30pm 32.0 31.7 15.5 37 10.3 NNE 11 15 6 8 1017.3 1017.0 0.0
23/01:00pm 30.8 31.0 14.8 37 9.8 NNE 7 15 4 8 1017.7 1017.4 0.0
23/12:30pm 29.8 30.1 15.9 43 8.6 NE 9 19 5 10 1018.1 1017.8 0.0
23/12:00pm 28.3 29.3 16.9 50 7.1 SSW 7 13 4 7 1018.6 1018.3 0.0
23/11:30am 27.7 29.3 16.9 51 6.8 NNW 4 11 2 6 1018.9 1018.6 0.0
23/11:00am 26.2 27.4 15.9 53 6.3 ENE 4 11 2 6 1019.3 1019.0 0.0
23/10:30am 24.8 25.9 16.5 60 5.1 WSW 6 9 3 5 1019.5 1019.2 0.0
23/10:00am 23.3 24.1 15.9 63 4.5 S 6 9 3 5 1019.8 1019.5 0.0
23/09:30am 22.2 23.4 16.0 68 3.7 SSE 4 7 2 4 1019.9 1019.6 0.0
23/09:00am 21.3 23.5 16.5 74 2.9 CALM 0 0 0 0 1019.9 1019.6 0.0
23/08:30am 19.3 21.7 16.9 86 1.5 CALM 0 0 0 0 1019.8 1019.5 0.0
23/08:00am 17.4 19.4 16.1 92 0.8 CALM 0 0 0 0 1019.6 1019.3 0.0
23/07:30am 16.6 18.8 16.4 99 0.1 CALM 0 0 0 0 1019.5 1019.2 0.0
23/07:00am 15.4 17.1 15.1 98 0.2 CALM 0 0 0 0 1019.3 1019.0 0.0
23/06:30am 15.7 17.5 15.4 98 0.2 CALM 0 0 0 0 1019.0 1018.7 0.0
23/06:00am 15.9 17.7 15.4 97 0.3 CALM 0 0 0 0 1018.8 1018.5 0.0
23/05:30am 16.2 18.0 15.6 96 0.4 CALM 0 0 0 0 1018.7 1018.4 0.0
23/05:00am 16.1 17.8 15.3 95 0.5 CALM 0 0 0 0 1018.6 1018.3 0.0
23/04:30am 16.3 18.2 15.7 96 0.4 CALM 0 0 0 0 1018.6 1018.3 0.0
23/04:00am 16.5 18.4 15.7 95 0.5 CALM 0 0 0 0 1018.6 1018.3 0.0
23/03:30am 16.9 18.9 15.9 94 0.6 CALM 0 0 0 0 1018.7 1018.4 0.0
23/03:00am 17.2 19.2 16.1 93 0.7 CALM 0 0 0 0 1018.5 1018.2 0.0
23/02:30am 17.4 19.4 15.9 91 0.9 CALM 0 0 0 0 1018.8 1018.5 0.0
23/02:00am 17.6 19.5 15.8 89 1.1 CALM 0 0 0 0 1018.9 1018.6 0.0
23/01:30am 18.1 19.9 15.5 85 1.5 CALM 0 0 0 0 1019.0 1018.7 0.0
23/01:00am 18.4 20.1 15.3 82 1.8 CALM 0 0 0 0 1019.1 1018.8 0.0
23/12:30am 18.9 19.3 15.4 80 2.1 S 7 9 4 5 1019.3 1019.0 0.0
23/12:00am 19.4 21.1 15.3 77 2.4 CALM 0 0 0 0 1019.5 1019.2 0.0
 
Date/Time
EDT
Temp
°C
App
Temp
°C
Dew
Point
°C
Rel
Hum
%
Delta-T
°C
Wind Press
QNH
hPa
Press
MSL
hPa
Rain since
9am
mm
Dir  Spd
km/h
Gust
km/h
Spd
kts
Gust
kts
22/11:30pm 19.8 21.6 15.4 76 2.6 CALM 0 0 0 0 1019.4 1019.1 0.0
22/11:00pm 20.4 22.2 15.4 73 3.0 CALM 0 2 0 1 1019.2 1018.9 0.0
22/10:30pm 21.7 22.1 15.3 67 3.8 ENE 7 9 4 5 1019.2 1018.9 0.0
22/10:00pm 21.7 22.0 15.1 66 3.9 NE 7 9 4 5 1019.2 1018.9 0.0
22/09:30pm 22.4 22.4 15.3 64 4.2 ENE 9 15 5 8 1019.0 1018.7 0.0
22/09:00pm 23.2 22.0 15.0 60 4.9 ENE 15 20 8 11 1018.6 1018.3 0.0
22/08:30pm 23.7 22.0 14.7 57 5.4 ENE 17 22 9 12 1018.2 1017.9 0.0
22/08:00pm 24.0 22.2 14.4 55 5.7 ENE 17 24 9 13 1017.7 1017.4 0.0
22/07:30pm 24.9 22.1 14.4 52 6.3 NE 22 30 12 16 1017.4 1017.1 0.0
22/07:00pm 25.8 24.1 14.6 50 6.7 ENE 17 24 9 13 1017.2 1016.9 0.0
22/06:30pm 26.5 24.2 14.6 48 7.2 ENE 20 35 11 19 1016.9 1016.5 0.0
22/06:00pm 27.1 24.1 14.8 47 7.4 ENE 24 37 13 20 1016.7 1016.3 0.0

Other Formats:

Comma delimited format used in spreadsheet applications
http://www.bom.gov.au/fwo/IDN60801/IDN60801.94755.axf

JavaScript Object Notation format (JSON) in row-major order
http://www.bom.gov.au/fwo/IDN60801/IDN60801.94755.json